Terminal Aerodrome Forecast
Issued by NWS Rapid City, SD

Home | Current Version | Previous Version | Graphics & Text | Print | Product List | Glossary On
Versions: 1 2 3 4 5 6 7 8 9 10 11 12 13 14 15 16
820
FTUS43 KUNR 311120
TAFRAP
TAF
KRAP 311120Z 3112/0112 31014KT P6SM SCT120
     FM311600 32027G37KT P6SM BKN060
     FM010100 30012KT P6SM SCT120=

USA.gov is the U.S. government's official web portal to all federal, state and local government web resources and services.